Time;durP1;ratioP1;P1;durP2;ratioP2;P2;SDS_P1;SDS_P2;PMS_P1;PMS_P2;Temp;Humidity;BMP_temperature;BMP_pressure;BME280_temperature;BME280_humidity;BME280_pressure;Samples;Min_cycle;Max_cycle;Signal;HPM_P1;HPM_P2
2022/02/01 00:05:42;;;;;;;0.90;0.43;;;4.00;72.10;;;;;;4992611;28;20455;-76
2022/02/01 00:08:28;;;;;;;1.50;0.52;;;3.80;72.70;;;;;;4994178;28;20049;-76
2022/02/01 00:11:09;;;;;;;2.03;0.40;;;3.50;74.00;;;;;;4993485;28;20034;-75
2022/02/01 00:14:01;;;;;;;4.63;0.25;;;3.80;73.10;;;;;;5005493;28;20672;-76
2022/02/01 00:38:01;;;;;;;0.63;0.10;;;4.00;73.50;;;;;;5007938;28;20047;-76
2022/02/01 00:40:27;;;;;;;2.05;0.57;;;3.80;74.40;;;;;;5007002;28;20399;-76
2022/02/01 00:42:53;;;;;;;10.85;5.47;;;3.90;74.60;;;;;;5006829;28;20034;-75
2022/02/01 00:45:19;;;;;;;1.75;0.90;;;4.30;73.80;;;;;;5007540;28;20054;-75
2022/02/01 00:47:45;;;;;;;2.22;0.20;;;4.50;73.20;;;;;;5009045;28;20097;-75
2022/02/01 00:50:16;;;;;;;0.50;0.15;;;4.50;73.50;;;;;;5006987;28;20045;-75
2022/02/01 00:52:42;;;;;;;2.25;0.80;;;4.50;72.80;;;;;;5009653;28;20057;-75
2022/02/01 00:55:08;;;;;;;0.45;0.20;;;4.50;73.60;;;;;;5007979;28;20030;-75
2022/02/01 00:57:34;;;;;;;0.57;0.20;;;4.30;73.20;;;;;;5010244;28;20076;-76
2022/02/01 01:00:00;;;;;;;1.75;0.40;;;4.40;73.30;;;;;;5010726;28;20058;-75
2022/02/01 01:02:25;;;;;;;0.55;0.10;;;4.40;73.40;;;;;;5013514;28;20480;-75
2022/02/01 01:04:51;;;;;;;0.65;0.20;;;4.30;73.30;;;;;;5011015;28;20488;-75
2022/02/01 01:07:17;;;;;;;0.30;0.10;;;4.40;73.50;;;;;;5011876;28;20396;-75
2022/02/01 01:09:43;;;;;;;0.45;0.10;;;5.30;71.70;;;;;;5012140;28;20030;-76
2022/02/01 01:12:09;;;;;;;0.98;0.20;;;5.30;71.30;;;;;;5011152;28;20037;-74
2022/02/01 01:44:24;;;;;;;0.43;0.17;;;4.40;73.40;;;;;;5010067;28;20068;-75
2022/02/01 01:55:08;;;;;;;0.45;0.10;;;4.20;74.10;;;;;;5013245;28;20045;-75
2022/02/01 01:57:33;;;;;;;0.13;0.13;;;4.30;73.30;;;;;;5012029;28;20073;-75
2022/02/01 01:59:59;;;;;;;0.73;0.20;;;4.60;72.80;;;;;;5011846;28;20054;-75
2022/02/01 02:02:25;;;;;;;0.98;0.20;;;4.80;72.50;;;;;;5010208;28;20072;-75
2022/02/01 02:04:50;;;;;;;0.45;0.17;;;4.60;72.50;;;;;;5010916;28;20029;-75
2022/02/01 02:07:16;;;;;;;2.35;1.00;;;4.60;72.70;;;;;;5010500;28;20034;-75
2022/02/01 02:09:42;;;;;;;0.40;0.28;;;4.40;73.30;;;;;;5011136;28;20078;-76
2022/02/01 02:12:15;;;;;;;0.43;0.13;;;4.20;73.60;;;;;;5008809;28;20041;-75
2022/02/01 02:14:50;;;;;;;0.75;0.30;;;4.40;73.80;;;;;;5012112;28;20026;-75
2022/02/01 02:17:15;;;;;;;0.25;0.22;;;4.40;74.70;;;;;;5011383;28;20026;-75
2022/02/01 02:19:41;;;;;;;0.75;0.30;;;4.20;74.60;;;;;;5012196;28;20365;-75
2022/02/01 02:22:08;;;;;;;1.45;0.70;;;4.10;74.70;;;;;;5009826;28;20041;-75
2022/02/01 02:24:37;;;;;;;1.05;0.30;;;4.30;74.40;;;;;;5011164;28;20034;-75
2022/02/01 02:27:04;;;;;;;0.85;0.28;;;4.50;74.30;;;;;;5010616;28;20022;-75
2022/02/01 02:29:29;;;;;;;0.80;0.10;;;4.50;74.20;;;;;;5011816;28;20384;-75
2022/02/01 02:31:56;;;;;;;1.10;0.38;;;4.60;73.80;;;;;;5010268;28;20044;-75
2022/02/01 02:34:22;;;;;;;0.65;0.20;;;4.60;73.70;;;;;;5012183;28;20034;-75
2022/02/01 02:37:03;;;;;;;0.22;0.10;;;4.50;73.70;;;;;;5011520;28;20036;-75
2022/02/01 02:42:23;;;;;;;0.28;0.10;;;4.40;74.30;;;;;;5009869;28;20044;-75
2022/02/01 02:45:05;;;;;;;0.40;0.30;;;4.40;74.30;;;;;;5010213;28;20026;-75
2022/02/01 02:47:32;;;;;;;0.60;0.30;;;4.30;74.30;;;;;;5010793;28;20395;-75
2022/02/01 02:49:58;;;;;;;0.57;0.30;;;4.30;74.40;;;;;;5010318;28;20508;-75
2022/02/01 02:52:26;;;;;;;1.13;0.25;;;4.10;74.90;;;;;;5009694;28;20053;-75
2022/02/01 02:54:58;;;;;;;0.65;0.22;;;4.40;74.30;;;;;;5009376;28;20026;-75
2022/02/01 02:57:25;;;;;;;1.10;0.17;;;4.40;74.30;;;;;;5011235;28;20030;-75
2022/02/01 02:59:50;;;;;;;0.98;0.22;;;4.30;74.40;;;;;;5011592;28;20057;-76
2022/02/01 03:02:16;;;;;;;0.15;0.10;;;4.40;74.00;;;;;;5012103;28;20128;-75
2022/02/01 03:04:42;;;;;;;1.88;0.68;;;4.30;74.30;;;;;;5011781;28;20049;-74
2022/02/01 03:07:08;;;;;;;1.90;1.15;;;3.90;75.60;;;;;;5007879;28;20519;-76
2022/02/01 03:09:39;;;;;;;1.40;0.10;;;4.10;75.30;;;;;;5011373;28;20468;-74
2022/02/01 03:12:06;;;;;;;0.45;0.20;;;4.30;74.60;;;;;;5009542;28;20116;-74
2022/02/01 03:22:13;;;;;;;0.25;0.05;;;4.50;73.50;;;;;;5009784;28;20042;-75
2022/02/01 03:24:39;;;;;;;0.55;0.30;;;4.30;74.30;;;;;;5011392;28;20064;-75
2022/02/01 03:27:05;;;;;;;1.90;0.50;;;4.40;74.30;;;;;;5008614;28;20042;-75
2022/02/01 03:29:30;;;;;;;1.60;0.40;;;4.20;74.30;;;;;;5006776;28;20045;-75
2022/02/01 03:31:56;;;;;;;0.22;0.13;;;4.10;74.80;;;;;;5009218;28;20037;-75
2022/02/01 03:34:22;;;;;;;2.17;0.40;;;4.10;74.90;;;;;;5009744;28;20041;-75
2022/02/01 03:36:47;;;;;;;0.82;0.20;;;4.20;74.60;;;;;;5009816;28;20026;-75
2022/02/01 03:39:14;;;;;;;0.40;0.20;;;4.20;74.70;;;;;;5010413;28;20145;-75
2022/02/01 03:41:39;;;;;;;0.35;0.20;;;4.10;74.80;;;;;;5009441;28;20056;-75
2022/02/01 03:44:06;;;;;;;0.98;0.30;;;4.20;74.80;;;;;;5010527;28;20492;-75
2022/02/01 03:46:32;;;;;;;1.08;0.40;;;4.10;74.70;;;;;;5009183;28;20033;-75
2022/02/01 03:48:57;;;;;;;0.10;0.10;;;4.30;74.40;;;;;;5009885;28;20546;-74
2022/02/01 03:51:23;;;;;;;1.05;0.20;;;4.10;75.00;;;;;;5009623;28;20030;-75
2022/02/01 03:53:49;;;;;;;0.22;0.20;;;4.00;75.30;;;;;;5009426;28;20042;-75
2022/02/01 03:56:15;;;;;;;0.45;0.20;;;3.90;75.50;;;;;;5011054;28;20038;-75
2022/02/01 03:58:40;;;;;;;0.35;0.20;;;3.90;75.50;;;;;;5008049;28;20026;-75
2022/02/01 04:01:06;;;;;;;3.22;0.40;;;3.90;75.30;;;;;;5009812;28;20038;-73
2022/02/01 04:03:32;;;;;;;1.13;0.50;;;4.10;75.10;;;;;;5007630;28;20445;-74
2022/02/01 04:05:57;;;;;;;3.20;0.10;;;3.90;75.80;;;;;;5005701;28;20061;-74
2022/02/01 04:08:24;;;;;;;3.85;0.75;;;4.00;75.40;;;;;;5006343;28;20040;-74
2022/02/01 04:10:51;;;;;;;1.40;0.30;;;4.10;75.20;;;;;;5005971;28;20073;-74
2022/02/01 04:13:18;;;;;;;2.83;0.55;;;3.90;75.70;;;;;;5006461;28;20038;-74
2022/02/01 04:15:43;;;;;;;0.60;0.30;;;4.10;75.40;;;;;;5004751;28;20105;-74
2022/02/01 04:18:10;;;;;;;0.57;0.30;;;4.20;75.20;;;;;;5003643;28;20054;-74
2022/02/01 04:20:37;;;;;;;0.57;0.03;;;4.20;75.00;;;;;;5004728;28;20026;-74
2022/02/01 04:23:02;;;;;;;0.10;0.05;;;4.20;75.10;;;;;;5008452;28;20034;-74
2022/02/01 04:25:28;;;;;;;1.55;0.30;;;4.10;75.40;;;;;;5009680;28;20161;-74
2022/02/01 04:27:54;;;;;;;0.63;0.17;;;4.30;75.10;;;;;;4994245;28;20096;-74
2022/02/01 04:30:19;;;;;;;0.85;0.10;;;4.20;75.10;;;;;;4993665;28;20077;-74
2022/02/01 04:32:53;;;;;;;1.38;0.30;;;4.10;75.20;;;;;;5006303;28;20030;-74
2022/02/01 04:35:27;;;;;;;3.15;0.20;;;4.10;75.40;;;;;;5007565;28;20065;-75
2022/02/01 04:37:55;;;;;;;0.65;0.20;;;4.10;75.60;;;;;;5009389;28;20033;-74
2022/02/01 04:40:22;;;;;;;6.57;0.60;;;4.30;75.20;;;;;;5007962;28;20045;-75
2022/02/01 04:42:49;;;;;;;1.25;0.35;;;4.40;74.90;;;;;;5009294;28;20648;-74
2022/02/01 04:45:18;;;;;;;1.25;0.30;;;4.40;75.10;;;;;;5009770;28;20096;-74
2022/02/01 04:47:45;;;;;;;0.65;0.20;;;4.40;75.10;;;;;;5005891;28;20088;-74
2022/02/01 04:50:19;;;;;;;1.52;0.40;;;4.50;74.90;;;;;;5001834;28;20044;-75
2022/02/01 04:52:47;;;;;;;0.20;0.10;;;4.50;75.00;;;;;;5000695;28;20126;-74
2022/02/01 04:55:13;;;;;;;1.55;0.35;;;4.50;75.00;;;;;;5006825;28;20827;-74
2022/02/01 04:57:50;;;;;;;0.98;0.13;;;4.40;75.30;;;;;;5005024;28;20577;-75
2022/02/01 05:00:16;;;;;;;7.47;3.50;;;4.30;75.70;;;;;;5003257;28;20484;-74
2022/02/01 05:02:41;;;;;;;1.75;0.35;;;4.30;75.40;;;;;;5003868;28;20053;-74
2022/02/01 05:05:07;;;;;;;0.28;0.10;;;4.50;75.30;;;;;;4997377;28;20061;-74
2022/02/01 05:07:33;;;;;;;2.50;0.15;;;4.50;75.60;;;;;;4987973;28;20092;-74
2022/02/01 05:09:59;;;;;;;0.95;0.30;;;4.40;75.60;;;;;;4988121;28;20038;-74
2022/02/01 05:12:26;;;;;;;8.55;4.28;;;4.30;75.80;;;;;;5000860;28;20092;-74
2022/02/01 05:14:52;;;;;;;6.97;4.78;;;4.30;75.70;;;;;;4996049;28;20117;-74
2022/02/01 05:17:19;;;;;;;1.63;0.40;;;4.20;76.10;;;;;;4988071;28;20026;-76
2022/02/01 05:19:54;;;;;;;1.38;0.60;;;4.10;76.20;;;;;;4990866;28;20028;-74
2022/02/01 05:22:20;;;;;;;1.20;0.40;;;4.10;76.40;;;;;;4999190;28;20112;-74
2022/02/01 05:24:49;;;;;;;0.77;0.20;;;4.10;76.60;;;;;;5004241;28;20096;-75
2022/02/01 05:27:15;;;;;;;1.65;0.40;;;4.20;76.70;;;;;;5005210;28;20041;-74
2022/02/01 05:29:41;;;;;;;0.80;0.30;;;4.20;76.40;;;;;;5002565;28;20050;-74
2022/02/01 05:32:27;;;;;;;0.30;0.30;;;4.30;76.30;;;;;;5003035;28;20991;-74
2022/02/01 05:34:54;;;;;;;0.30;0.30;;;4.20;76.50;;;;;;5004114;28;20030;-74
2022/02/01 05:37:20;;;;;;;0.50;0.20;;;4.20;76.60;;;;;;5004819;28;20034;-74
2022/02/01 05:39:46;;;;;;;1.85;0.43;;;4.20;76.40;;;;;;5005394;28;20041;-74
2022/02/01 05:42:16;;;;;;;2.72;0.40;;;4.30;76.60;;;;;;5002709;28;20025;-74
2022/02/01 05:44:41;;;;;;;1.17;0.55;;;4.20;76.70;;;;;;5003992;28;20104;-74
2022/02/01 05:47:07;;;;;;;0.65;0.22;;;4.20;76.90;;;;;;5004252;28;20838;-74
2022/02/01 05:49:33;;;;;;;0.82;0.35;;;4.40;76.40;;;;;;5002350;28;20037;-74
2022/02/01 05:52:01;;;;;;;0.77;0.38;;;4.40;76.40;;;;;;4997696;28;20045;-74
2022/02/01 05:54:28;;;;;;;0.73;0.20;;;4.40;76.50;;;;;;5000387;28;20032;-74
2022/02/01 05:56:54;;;;;;;2.15;0.70;;;4.30;76.40;;;;;;5002256;28;20022;-74
2022/02/01 05:59:20;;;;;;;3.58;0.70;;;4.30;76.50;;;;;;5004882;28;20063;-75
2022/02/01 06:01:46;;;;;;;1.27;0.38;;;4.30;76.50;;;;;;5004472;28;20481;-74
2022/02/01 06:04:11;;;;;;;2.97;0.22;;;4.10;76.90;;;;;;5003480;28;20618;-74
2022/02/01 06:06:37;;;;;;;2.72;0.30;;;4.30;76.50;;;;;;4999983;28;20097;-76
2022/02/01 06:09:03;;;;;;;0.45;0.20;;;4.00;77.20;;;;;;5017282;28;20045;-74
2022/02/01 06:11:29;;;;;;;0.55;0.20;;;4.10;77.10;;;;;;5002725;28;20068;-74
2022/02/01 06:13:55;;;;;;;1.23;0.40;;;4.20;77.10;;;;;;5005247;28;20041;-74
2022/02/01 06:16:20;;;;;;;0.93;0.30;;;4.20;76.90;;;;;;5002297;28;20034;-74
2022/02/01 06:18:46;;;;;;;3.97;0.40;;;4.50;76.80;;;;;;5004766;28;20498;-74
2022/02/01 06:21:12;;;;;;;0.70;0.30;;;4.50;76.50;;;;;;5001568;28;20034;-75
2022/02/01 06:23:40;;;;;;;4.95;0.50;;;4.40;76.60;;;;;;5004125;28;20040;-74
2022/02/01 06:26:05;;;;;;;0.80;0.25;;;4.20;77.20;;;;;;5002782;28;20045;-74
2022/02/01 06:28:31;;;;;;;3.20;0.43;;;4.00;77.70;;;;;;5002038;28;20030;-74
2022/02/01 06:30:57;;;;;;;1.27;0.40;;;4.20;77.30;;;;;;5002868;28;20037;-75
2022/02/01 06:33:23;;;;;;;0.60;0.30;;;4.10;77.90;;;;;;5005609;28;20045;-75
2022/02/01 06:35:49;;;;;;;1.77;0.52;;;4.10;77.60;;;;;;5005831;28;20116;-74
2022/02/01 06:38:15;;;;;;;5.20;0.47;;;4.00;77.70;;;;;;4999992;28;20184;-73
2022/02/01 06:40:47;;;;;;;1.05;0.38;;;4.50;77.30;;;;;;4992588;28;20052;-73
2022/02/01 06:43:15;;;;;;;0.38;0.38;;;3.90;77.80;;;;;;4999808;28;20033;-74
2022/02/01 06:45:41;;;;;;;1.40;0.45;;;3.90;77.50;;;;;;4996460;28;20033;-76
2022/02/01 06:48:07;;;;;;;1.83;0.52;;;3.70;78.10;;;;;;4989239;28;20508;-74
2022/02/01 06:50:34;;;;;;;1.58;0.47;;;3.90;77.90;;;;;;4988803;28;20038;-74
2022/02/01 06:53:02;;;;;;;1.40;0.35;;;4.30;77.20;;;;;;4987040;28;20037;-74
2022/02/01 06:55:58;;;;;;;0.30;0.28;;;3.80;77.40;;;;;;4987951;28;20117;-74
2022/02/01 06:58:18;;;;;;;0.85;0.40;;;3.50;77.90;;;;;;4986279;28;20991;-74
2022/02/01 07:00:44;;;;;;;1.65;0.35;;;2.90;79.30;;;;;;4999991;28;20026;-73
2022/02/01 07:03:09;;;;;;;2.17;0.98;;;3.10;79.40;;;;;;5003375;28;20034;-74
2022/02/01 07:05:35;;;;;;;1.33;0.47;;;3.80;78.40;;;;;;5005020;28;20037;-73
2022/02/01 07:08:01;;;;;;;4.15;1.10;;;3.70;78.60;;;;;;5003150;28;20030;-73
2022/02/01 07:10:27;;;;;;;1.35;0.80;;;3.90;78.40;;;;;;5002884;28;20903;-74
2022/02/01 07:12:53;;;;;;;0.90;0.28;;;4.00;77.40;;;;;;5003251;28;20045;-73
2022/02/01 07:15:18;;;;;;;1.30;0.50;;;3.50;78.10;;;;;;5005011;28;20124;-73
2022/02/01 07:17:49;;;;;;;2.50;1.10;;;3.60;78.90;;;;;;5002699;28;20026;-73
2022/02/01 07:20:16;;;;;;;4.22;0.77;;;3.80;78.40;;;;;;5002770;28;20492;-73
2022/02/01 07:22:43;;;;;;;1.58;0.57;;;3.60;78.50;;;;;;5003139;28;20065;-74
2022/02/01 07:25:46;;;;;;;1.15;0.38;;;3.90;77.40;;;;;;5004177;28;20107;-73
2022/02/01 07:28:04;;;;;;;0.20;0.20;;;4.20;75.10;;;;;;5002329;28;20034;-73
2022/02/01 07:30:30;;;;;;;1.85;0.20;;;5.10;71.30;;;;;;5001325;28;20038;-73
2022/02/01 07:32:58;;;;;;;0.20;0.10;;;5.30;70.10;;;;;;5002271;28;20104;-73
2022/02/01 07:35:25;;;;;;;1.98;0.28;;;5.30;70.80;;;;;;5003669;28;20053;-73
2022/02/01 07:37:55;;;;;;;0.00;0.00;;;5.50;70.00;;;;;;5007255;28;20526;-74
2022/02/01 07:40:22;;;;;;;1.90;0.10;;;5.90;68.00;;;;;;5006564;28;20037;-73
2022/02/01 07:42:48;;;;;;;0.20;0.08;;;6.90;65.00;;;;;;5007086;28;20026;-73
2022/02/01 07:45:18;;;;;;;0.10;0.00;;;6.40;66.80;;;;;;5006271;28;20038;-73
2022/02/01 07:47:43;;;;;;;0.80;0.10;;;6.60;65.30;;;;;;5006831;28;20469;-74
2022/02/01 07:50:09;;;;;;;0.10;0.00;;;6.90;64.40;;;;;;5006853;28;20042;-73
2022/02/01 07:52:36;;;;;;;0.52;0.10;;;7.00;63.90;;;;;;5007351;28;20115;-74
2022/02/01 07:55:02;;;;;;;0.45;0.05;;;7.20;63.80;;;;;;5007100;28;20081;-73
2022/02/01 07:57:28;;;;;;;0.10;0.05;;;7.20;63.80;;;;;;5007287;28;20488;-73
2022/02/01 07:59:54;;;;;;;1.35;0.20;;;7.40;63.60;;;;;;4996686;28;20042;-75
2022/02/01 08:02:23;;;;;;;0.47;0.20;;;7.30;63.30;;;;;;4999026;28;20030;-71
2022/02/01 08:04:49;;;;;;;0.65;0.10;;;7.90;62.50;;;;;;5004677;28;20566;-72
2022/02/01 08:07:15;;;;;;;0.65;0.13;;;7.60;62.70;;;;;;5004079;28;20030;-72
2022/02/01 08:09:47;;;;;;;3.60;0.20;;;7.60;62.30;;;;;;5005492;28;20129;-71
2022/02/01 08:20:36;;;;;;;6.70;0.60;;;8.00;61.30;;;;;;5005235;28;20045;-72
2022/02/01 08:23:02;;;;;;;0.52;0.20;;;7.80;61.90;;;;;;5006026;28;20771;-72
2022/02/01 08:25:32;;;;;;;1.55;0.10;;;8.10;61.80;;;;;;5006816;28;20427;-72
2022/02/01 08:28:01;;;;;;;0.30;0.20;;;8.00;61.30;;;;;;5004581;28;20033;-74
2022/02/01 08:30:27;;;;;;;0.90;0.20;;;8.10;61.00;;;;;;5005605;28;20076;-74
2022/02/01 08:32:53;;;;;;;2.83;0.10;;;8.20;62.90;;;;;;5006748;28;20024;-74
2022/02/01 08:35:19;;;;;;;3.55;0.32;;;8.00;60.80;;;;;;5007882;28;20029;-74
2022/02/01 08:37:45;;;;;;;0.22;0.00;;;8.80;63.80;;;;;;5005206;28;20041;-74
2022/02/01 08:40:16;;;;;;;0.30;0.10;;;8.20;60.20;;;;;;5007418;28;20658;-74
2022/02/01 08:42:43;;;;;;;0.20;0.00;;;8.20;60.00;;;;;;5006571;28;20033;-75
2022/02/01 08:45:10;;;;;;;2.17;0.10;;;8.20;60.40;;;;;;4999335;28;20029;-77
2022/02/01 08:47:37;;;;;;;5.07;0.10;;;8.20;60.50;;;;;;4989530;28;20029;-77
2022/02/01 08:50:04;;;;;;;0.82;0.30;;;8.30;60.00;;;;;;4989831;28;20064;-76
2022/02/01 08:52:39;;;;;;;5.85;0.38;;;8.20;59.70;;;;;;5000747;28;20088;-77
2022/02/01 08:55:08;;;;;;;0.68;0.10;;;8.50;59.20;;;;;;4996131;28;20038;-77
2022/02/01 08:57:34;;;;;;;1.25;0.82;;;8.40;59.80;;;;;;4992927;28;20101;-73
2022/02/01 09:00:05;;;;;;;0.00;0.00;;;8.20;59.60;;;;;;5005185;28;20104;-76
2022/02/01 09:02:31;;;;;;;0.10;0.00;;;8.40;59.10;;;;;;5006106;28;20052;-74
2022/02/01 09:04:57;;;;;;;1.25;0.35;;;8.50;58.90;;;;;;5005435;28;20042;-75
2022/02/01 09:07:24;;;;;;;2.08;0.15;;;8.60;58.60;;;;;;5005587;28;20545;-74
2022/02/01 09:09:50;;;;;;;0.22;0.00;;;8.70;58.00;;;;;;5004182;28;20061;-74
2022/02/01 09:12:17;;;;;;;6.60;0.40;;;8.70;58.30;;;;;;5006208;28;20030;-74
2022/02/01 09:14:46;;;;;;;8.80;0.90;;;8.70;58.30;;;;;;5003603;28;20225;-75
2022/02/01 09:17:14;;;;;;;1.88;0.45;;;8.70;58.00;;;;;;5002084;28;20649;-75
2022/02/01 09:19:41;;;;;;;4.15;0.40;;;8.90;57.20;;;;;;5004299;28;20052;-77
2022/02/01 09:22:08;;;;;;;1.13;0.40;;;8.70;57.80;;;;;;5004744;28;20041;-78
2022/02/01 09:24:33;;;;;;;1.60;0.22;;;8.60;57.20;;;;;;5005109;28;20045;-74
2022/02/01 09:27:00;;;;;;;40.15;2.20;;;8.60;57.50;;;;;;5005668;28;20918;-72
2022/02/01 09:29:26;;;;;;;0.52;0.10;;;8.80;57.50;;;;;;5004800;28;20042;-74
2022/02/01 09:31:54;;;;;;;1.88;0.35;;;8.90;57.10;;;;;;5003523;28;20044;-73
2022/02/01 09:34:21;;;;;;;2.28;1.08;;;10.00;57.30;;;;;;5004504;28;20029;-74
2022/02/01 09:36:51;;;;;;;6.55;0.70;;;9.20;57.30;;;;;;5003996;28;20068;-73
2022/02/01 09:39:18;;;;;;;4.28;1.95;;;9.10;56.50;;;;;;5006181;28;20022;-73
2022/02/01 09:41:44;;;;;;;3.63;0.40;;;8.80;57.70;;;;;;5005304;28;20689;-74
2022/02/01 09:44:10;;;;;;;1.30;0.30;;;8.80;58.20;;;;;;5005097;28;20084;-74
2022/02/01 09:46:36;;;;;;;1.23;0.10;;;8.90;57.10;;;;;;5002964;28;20029;-74
2022/02/01 09:49:03;;;;;;;0.15;0.03;;;9.00;57.60;;;;;;5005158;28;20034;-74
2022/02/01 09:51:29;;;;;;;2.05;0.20;;;9.10;56.90;;;;;;5003732;28;20030;-72
2022/02/01 09:53:55;;;;;;;0.20;0.10;;;9.40;57.10;;;;;;5004514;28;20034;-75
2022/02/01 09:56:20;;;;;;;0.98;0.22;;;9.30;56.40;;;;;;5004815;28;20440;-76
2022/02/01 09:58:55;;;;;;;7.38;0.77;;;9.30;56.30;;;;;;5004083;28;20026;-77
2022/02/01 10:01:28;;;;;;;0.30;0.10;;;9.20;56.20;;;;;;4995965;28;20076;-76
2022/02/01 10:04:04;;;;;;;0.10;0.10;;;9.10;57.10;;;;;;4993636;28;20023;-71
2022/02/01 10:06:31;;;;;;;2.67;0.30;;;9.10;57.00;;;;;;4987165;28;20036;-72
2022/02/01 10:09:12;;;;;;;6.82;0.35;;;9.30;57.00;;;;;;4986881;28;20137;-73
2022/02/01 10:11:41;;;;;;;0.10;0.10;;;9.30;58.00;;;;;;4991972;28;20034;-73
2022/02/01 10:14:09;;;;;;;0.20;0.00;;;9.60;57.10;;;;;;4988674;28;20029;-74
2022/02/01 10:16:51;;;;;;;0.40;0.10;;;9.60;55.90;;;;;;4990327;28;20024;-72
2022/02/01 10:19:18;;;;;;;0.70;0.28;;;9.60;56.20;;;;;;5002527;28;20022;-72
2022/02/01 10:21:50;;;;;;;0.30;0.10;;;9.60;55.80;;;;;;5001211;28;20026;-72
2022/02/01 10:24:30;;;;;;;17.60;6.05;;;9.60;55.60;;;;;;4997869;28;20361;-72
2022/02/01 10:27:27;;;;;;;1.30;0.10;;;9.70;55.80;;;;;;5004240;28;20049;-72
2022/02/01 10:32:38;;;;;;;0.10;0.00;;;9.60;55.80;;;;;;5005140;28;20065;-72
2022/02/01 10:38:09;;;;;;;0.80;0.10;;;9.70;55.60;;;;;;5005389;28;20116;-72
2022/02/01 10:40:46;;;;;;;0.65;0.10;;;9.80;55.40;;;;;;5008004;28;20034;-72
2022/02/01 10:43:32;;;;;;;1.15;0.10;;;9.90;55.10;;;;;;5005013;28;20511;-72
2022/02/01 10:46:16;;;;;;;0.90;0.17;;;9.80;55.60;;;;;;5004295;28;20236;-72
2022/02/01 10:48:46;;;;;;;0.70;0.03;;;9.90;55.70;;;;;;5007032;28;20100;-72
2022/02/01 10:51:19;;;;;;;4.35;0.20;;;10.00;54.40;;;;;;5007166;28;20109;-72
2022/02/01 10:53:45;;;;;;;0.85;0.50;;;10.00;55.40;;;;;;5007454;28;20030;-72
2022/02/01 10:56:17;;;;;;;1.80;0.10;;;10.20;53.70;;;;;;5008122;28;20041;-72
2022/02/01 10:58:44;;;;;;;0.10;0.10;;;9.90;54.20;;;;;;5006473;28;20113;-72
2022/02/01 11:01:11;;;;;;;0.52;0.10;;;9.80;55.00;;;;;;5005213;28;20034;-72
2022/02/01 11:03:43;;;;;;;0.52;0.30;;;10.00;54.90;;;;;;5006571;28;20030;-72
2022/02/01 11:06:10;;;;;;;0.65;0.30;;;10.00;54.80;;;;;;5007042;28;20141;-72
2022/02/01 11:08:39;;;;;;;0.20;0.05;;;10.10;55.90;;;;;;5007006;28;20040;-72
2022/02/01 11:11:05;;;;;;;0.70;0.10;;;10.20;55.30;;;;;;5006139;28;20033;-73
2022/02/01 11:13:44;;;;;;;0.43;0.10;;;10.00;55.60;;;;;;5005482;28;20534;-72
2022/02/01 11:16:28;;;;;;;1.45;0.68;;;10.00;56.00;;;;;;5005307;28;20034;-72
2022/02/01 11:19:03;;;;;;;0.20;0.10;;;10.20;55.80;;;;;;5003076;28;20088;-72
2022/02/01 11:21:30;;;;;;;0.08;0.00;;;10.40;54.70;;;;;;5005429;28;20104;-72
2022/02/01 11:24:07;;;;;;;0.00;0.00;;;10.30;54.40;;;;;;5004720;28;20038;-72
2022/02/01 11:26:37;;;;;;;0.20;0.00;;;10.30;54.40;;;;;;5006091;28;20038;-73
2022/02/01 11:29:28;;;;;;;0.60;0.10;;;10.40;53.60;;;;;;5004845;28;20038;-72
2022/02/01 11:31:57;;;;;;;0.03;0.00;;;10.50;54.00;;;;;;5002596;28;20040;-74
2022/02/01 11:34:33;;;;;;;1.65;0.05;;;10.50;53.50;;;;;;5005626;28;20030;-73
2022/02/01 11:37:10;;;;;;;2.15;0.20;;;10.40;53.70;;;;;;5005022;28;20041;-72
2022/02/01 11:39:50;;;;;;;17.23;11.93;;;10.40;54.10;;;;;;5003620;28;20029;-72
2022/02/01 11:42:18;;;;;;;0.90;0.45;;;10.70;53.70;;;;;;5006199;28;20038;-73
2022/02/01 11:44:44;;;;;;;1.55;0.20;;;10.90;54.80;;;;;;5003962;28;20399;-72
2022/02/01 11:47:17;;;;;;;3.22;0.40;;;10.80;53.80;;;;;;5006376;28;20459;-72
2022/02/01 11:49:57;;;;;;;0.93;0.17;;;10.80;54.20;;;;;;5007385;28;20082;-72
2022/02/01 11:52:24;;;;;;;1.98;0.17;;;11.00;53.10;;;;;;5005631;28;20026;-73
2022/02/01 11:55:06;;;;;;;1.08;0.10;;;10.80;52.20;;;;;;5004366;28;20184;-72
2022/02/01 11:57:32;;;;;;;0.73;0.40;;;10.80;52.50;;;;;;5006722;28;20026;-72
2022/02/01 12:00:00;;;;;;;0.45;0.10;;;11.10;52.70;;;;;;5006086;28;20545;-72
2022/02/01 12:02:38;;;;;;;1.45;0.20;;;10.80;52.80;;;;;;5005217;28;20026;-72
2022/02/01 12:05:13;;;;;;;2.85;0.22;;;10.80;54.90;;;;;;5005413;28;20026;-72
2022/02/01 12:08:01;;;;;;;1.08;0.17;;;11.00;53.70;;;;;;5006525;28;20038;-73
2022/02/01 12:10:27;;;;;;;0.15;0.05;;;11.10;53.40;;;;;;5005282;28;20511;-72
2022/02/01 12:12:57;;;;;;;0.20;0.10;;;10.70;53.10;;;;;;5005670;28;20034;-72
2022/02/01 12:15:31;;;;;;;0.45;0.10;;;11.00;53.70;;;;;;5004247;28;20621;-72
2022/02/01 12:18:38;;;;;;;0.98;0.10;;;11.10;53.90;;;;;;5006120;28;20476;-72
2022/02/01 12:21:29;;;;;;;0.10;0.00;;;11.20;53.80;;;;;;4989059;28;20061;-73
2022/02/01 12:23:57;;;;;;;0.55;0.20;;;11.00;52.70;;;;;;5009672;28;20025;-73
2022/02/01 12:26:25;;;;;;;2.45;0.20;;;10.90;52.90;;;;;;5006856;28;20049;-72
2022/02/01 12:28:53;;;;;;;1.30;0.20;;;11.00;52.80;;;;;;5008827;28;20033;-72
2022/02/01 12:31:20;;;;;;;2.22;0.73;;;11.00;52.70;;;;;;5010410;28;20053;-72
2022/02/01 12:33:48;;;;;;;0.45;0.20;;;11.20;53.10;;;;;;5008478;28;20030;-72
2022/02/01 12:36:18;;;;;;;3.40;0.20;;;11.40;52.20;;;;;;5009430;28;20030;-72
2022/02/01 12:38:48;;;;;;;2.38;0.82;;;11.10;52.40;;;;;;5009587;28;20022;-71
2022/02/01 12:41:20;;;;;;;1.20;0.38;;;11.20;52.40;;;;;;5009650;28;20092;-72
2022/02/01 12:46:38;;;;;;;0.47;0.13;;;11.70;52.30;;;;;;5009041;28;20100;-71
2022/02/01 12:49:04;;;;;;;0.22;0.00;;;11.20;51.30;;;;;;5002482;28;20034;-71
2022/02/01 12:51:49;;;;;;;5.97;0.35;;;11.20;51.20;;;;;;5008696;28;20096;-72
2022/02/01 12:54:24;;;;;;;0.47;0.30;;;11.10;51.10;;;;;;5006933;28;20729;-71
2022/02/01 12:56:52;;;;;;;0.82;0.10;;;11.10;51.30;;;;;;5009651;28;20045;-72
2022/02/01 12:59:18;;;;;;;20.95;2.05;;;11.30;51.40;;;;;;5009526;28;20565;-71
2022/02/01 13:01:45;;;;;;;2.20;0.25;;;11.50;50.60;;;;;;5010164;28;20061;-71
2022/02/01 13:04:21;;;;;;;26.23;3.08;;;11.50;51.40;;;;;;5007448;28;20045;-72
2022/02/01 13:06:48;;;;;;;5.72;0.40;;;11.60;51.60;;;;;;5010171;28;20033;-72
2022/02/01 13:15:09;;;;;;;;;;;11.40;50.20;;;;;;5007990;28;20049;-72
2022/02/01 13:20:05;;;;;;;8.10;0.55;;;11.70;51.10;;;;;;5006822;28;20041;-72
2022/02/01 13:22:32;;;;;;;0.00;0.00;;;11.40;50.40;;;;;;5008676;28;20030;-72
2022/02/01 13:25:03;;;;;;;0.20;0.10;;;11.60;50.90;;;;;;5009134;28;20069;-72
2022/02/01 13:27:29;;;;;;;1.50;0.30;;;11.30;49.60;;;;;;5007415;28;20468;-72
2022/02/01 13:30:05;;;;;;;0.43;0.10;;;11.50;50.70;;;;;;5008468;28;20041;-72
2022/02/01 13:32:38;;;;;;;2.00;0.50;;;11.30;50.60;;;;;;5008748;28;20037;-72
2022/02/01 13:35:05;;;;;;;0.20;0.10;;;11.50;50.50;;;;;;5008567;28;20091;-71
2022/02/01 13:37:33;;;;;;;0.25;0.08;;;11.40;51.20;;;;;;5008127;28;20025;-72
2022/02/01 13:39:59;;;;;;;0.65;0.20;;;11.40;50.70;;;;;;5008137;28;20511;-72
2022/02/01 13:42:32;;;;;;;0.20;0.00;;;11.50;51.00;;;;;;5009279;28;20559;-72
2022/02/01 13:45:05;;;;;;;0.32;0.10;;;11.50;50.10;;;;;;5008209;28;20034;-72
2022/02/01 13:47:36;;;;;;;1.48;0.85;;;11.40;50.40;;;;;;5008558;28;20026;-72
2022/02/01 13:50:11;;;;;;;1.65;0.38;;;11.40;51.00;;;;;;5006705;28;20120;-73
2022/02/01 13:52:38;;;;;;;0.52;0.22;;;11.40;50.40;;;;;;5008402;28;20026;-72
2022/02/01 13:55:16;;;;;;;3.63;0.10;;;11.40;50.10;;;;;;5006850;28;20030;-72
2022/02/01 13:57:42;;;;;;;1.65;0.13;;;11.40;51.00;;;;;;5006969;28;20080;-72
2022/02/01 14:00:11;;;;;;;0.00;0.00;;;11.30;50.70;;;;;;5007287;28;20488;-72
2022/02/01 14:02:45;;;;;;;3.58;1.30;;;11.30;50.40;;;;;;5007954;28;20486;-72
2022/02/01 14:05:20;;;;;;;1.98;0.85;;;11.30;50.80;;;;;;5008129;28;20030;-72
2022/02/01 14:26:50;;;;;;;1.85;0.80;;;11.50;50.30;;;;;;5002835;28;20056;-72
2022/02/01 14:32:14;;;;;;;3.50;1.35;;;11.40;50.40;;;;;;5005523;28;20088;-72
2022/02/01 14:34:42;;;;;;;0.38;0.10;;;11.40;51.50;;;;;;5003959;28;20464;-72
2022/02/01 14:37:24;;;;;;;4.55;1.45;;;11.40;51.60;;;;;;5003206;28;20030;-72
2022/02/01 14:45:14;;;;;;;0.73;0.50;;;11.30;50.40;;;;;;5003641;28;20364;-72
2022/02/01 14:47:39;;;;;;;0.38;0.20;;;11.30;50.40;;;;;;5004177;28;20057;-72
2022/02/01 14:50:07;;;;;;;1.90;0.30;;;11.30;51.00;;;;;;5002579;28;20160;-72
2022/02/01 14:52:33;;;;;;;0.57;0.10;;;11.30;51.00;;;;;;5004787;28;20029;-72
2022/02/01 14:55:07;;;;;;;0.32;0.10;;;11.20;51.40;;;;;;5003702;28;20062;-73
2022/02/01 15:06:45;;;;;;;2.63;2.03;;;11.10;51.20;;;;;;5003359;28;20048;-73
2022/02/01 15:13:51;;;;;;;3.45;0.32;;;11.00;51.70;;;;;;5005046;28;20064;-73
2022/02/01 15:16:16;;;;;;;0.35;0.20;;;10.90;51.90;;;;;;5002304;28;20026;-73
2022/02/01 15:18:44;;;;;;;0.88;0.30;;;10.90;51.60;;;;;;5004082;28;20060;-72
2022/02/01 15:21:11;;;;;;;1.13;0.40;;;10.90;51.80;;;;;;5002551;28;20037;-72
2022/02/01 15:23:36;;;;;;;1.10;0.60;;;10.80;52.10;;;;;;5004687;28;20041;-71
2022/02/01 15:26:04;;;;;;;3.15;1.02;;;10.70;52.30;;;;;;5001520;28;20061;-72